Rutherford, California
Current Conditions -  °F | °C
As of 7:54 AM on Sunday 21 Dec 2014 (Local Time) from KAPC Reporting Station
Overcast Overcast  
Wind Chill: 57°   Ceiling: 600
Heat Index: 57°   Visibility: 10mi
Dew Point: 57°   Wind: 6mph
Humidity: 100%   Direction: 230°SW
Pressure: 30.27"   Gusts: NA
Location:  38.46°N, 122.42°W
Report Text: KAPC 211554Z 23005KT 10SM OVC006 14/14 A3027 RMK AO2 CIG 005V009 SLP242 T01390139
Loading
Personal Weather Stations






























Interactive Weather Map New forecast layout! Learn more

10-Day Weather Forecast

Advertisements
Track Severe Weather on mobile